createdAt,value
2018-06-24T00:00:39.716Z,13.30
2018-06-24T00:03:08.695Z,13.30
2018-06-24T00:05:37.704Z,13.30
2018-06-24T00:08:06.621Z,13.30
2018-06-24T00:10:35.714Z,13.20
2018-06-24T00:13:04.816Z,13.20
2018-06-24T00:15:33.787Z,13.20
2018-06-24T00:18:02.748Z,13.20
2018-06-24T00:20:31.664Z,13.20
2018-06-24T00:23:00.629Z,13.20
2018-06-24T00:25:29.584Z,13.30
2018-06-24T00:27:58.663Z,13.20
2018-06-24T00:30:27.567Z,13.20
2018-06-24T00:32:56.706Z,13.20
2018-06-24T00:35:26.342Z,13.20
2018-06-24T00:37:55.316Z,13.20
2018-06-24T00:40:24.639Z,13.30
2018-06-24T00:42:53.676Z,13.30
2018-06-24T00:45:22.626Z,13.30
2018-06-24T00:47:51.632Z,13.30
2018-06-24T00:50:20.629Z,13.30
2018-06-24T00:52:51.505Z,13.30
2018-06-24T00:55:20.454Z,13.30
2018-06-24T00:57:49.836Z,13.30
2018-06-24T01:00:19.325Z,13.20
2018-06-24T01:02:48.247Z,13.20
2018-06-24T01:05:17.296Z,13.30
2018-06-24T01:07:46.539Z,13.20
2018-06-24T01:10:15.533Z,13.30
2018-06-24T01:12:44.448Z,13.30
2018-06-24T01:15:13.394Z,13.30
2018-06-24T01:17:42.427Z,13.30
2018-06-24T01:20:11.468Z,13.30
2018-06-24T01:22:40.400Z,13.30
2018-06-24T01:25:09.380Z,13.30
2018-06-24T01:27:38.322Z,13.30
2018-06-24T01:30:07.303Z,13.30
2018-06-24T01:32:36.763Z,13.20
2018-06-24T01:35:05.727Z,13.10
2018-06-24T01:37:34.710Z,13.00
2018-06-24T01:40:03.660Z,13.00
2018-06-24T01:42:32.649Z,13.00
2018-06-24T01:45:01.583Z,12.90
2018-06-24T01:47:30.586Z,12.90
2018-06-24T01:49:59.588Z,12.90
2018-06-24T01:52:28.535Z,12.90
2018-06-24T01:54:57.486Z,12.90
2018-06-24T01:57:26.416Z,12.90
2018-06-24T01:59:55.407Z,12.90
2018-06-24T02:02:24.322Z,13.00
2018-06-24T02:04:53.223Z,13.00
2018-06-24T02:07:22.157Z,13.00
2018-06-24T02:09:51.093Z,13.00
2018-06-24T02:12:20.525Z,13.00
2018-06-24T02:14:56.601Z,13.00
2018-06-24T02:17:27.316Z,12.90
2018-06-24T02:19:56.250Z,12.90
2018-06-24T02:22:25.800Z,12.90
2018-06-24T02:24:54.750Z,12.90
2018-06-24T02:27:23.733Z,12.90
2018-06-24T02:29:52.693Z,12.90
2018-06-24T02:32:21.677Z,12.90
2018-06-24T02:37:19.206Z,12.80
2018-06-24T02:39:48.158Z,12.70
2018-06-24T02:42:17.073Z,12.60
2018-06-24T02:44:46.029Z,12.50
2018-06-24T02:47:14.969Z,12.50
2018-06-24T02:49:43.898Z,12.50
2018-06-24T02:52:12.850Z,12.50
2018-06-24T02:54:41.815Z,12.40
2018-06-24T02:57:10.740Z,12.40
2018-06-24T02:59:39.671Z,12.40
2018-06-24T03:02:08.656Z,12.40
2018-06-24T03:04:37.592Z,12.50
2018-06-24T03:07:06.568Z,12.60
2018-06-24T03:09:35.648Z,12.70
2018-06-24T03:12:04.959Z,12.80
2018-06-24T03:14:33.876Z,12.90
2018-06-24T03:17:02.815Z,13.10
2018-06-24T03:19:32.340Z,13.20
2018-06-24T03:22:01.556Z,13.30
2018-06-24T03:24:31.076Z,13.40
2018-06-24T03:27:00.022Z,13.40
2018-06-24T03:29:28.931Z,13.20
2018-06-24T03:31:57.885Z,13.30
2018-06-24T03:34:26.843Z,13.30
2018-06-24T03:36:55.817Z,13.30
2018-06-24T03:39:24.976Z,13.30
2018-06-24T03:41:53.964Z,13.40
2018-06-24T03:44:22.892Z,13.50
2018-06-24T03:46:52.028Z,13.60
2018-06-24T03:49:21.447Z,13.60
2018-06-24T03:51:50.370Z,13.70
2018-06-24T03:54:19.339Z,13.80
2018-06-24T03:56:48.320Z,13.80
2018-06-24T03:59:17.252Z,13.80
2018-06-24T04:01:46.238Z,13.90
2018-06-24T04:04:15.190Z,13.90
2018-06-24T04:06:44.105Z,14.00
2018-06-24T04:09:13.571Z,14.10
2018-06-24T04:11:42.540Z,14.10
2018-06-24T04:14:11.498Z,14.10
2018-06-24T04:16:40.418Z,14.00
2018-06-24T04:21:38.446Z,14.00
2018-06-24T04:24:07.594Z,14.00
2018-06-24T04:26:36.542Z,14.10
2018-06-24T04:29:05.462Z,14.10
2018-06-24T04:31:34.429Z,14.20
2018-06-24T04:34:03.370Z,14.30
2018-06-24T04:36:32.400Z,14.40
2018-06-24T04:39:01.337Z,14.40
2018-06-24T04:41:30.404Z,14.40
2018-06-24T04:43:59.914Z,14.30
2018-06-24T04:48:57.410Z,14.20
2018-06-24T04:51:26.333Z,14.20
2018-06-24T04:53:55.302Z,14.20
2018-06-24T04:56:24.768Z,14.40
2018-06-24T04:58:53.754Z,14.50
2018-06-24T05:01:22.841Z,14.70
2018-06-24T05:03:51.780Z,14.90
2018-06-24T05:06:21.269Z,15.00
2018-06-24T05:08:50.228Z,15.10
2018-06-24T05:11:19.251Z,15.20
2018-06-24T05:13:48.634Z,15.40
2018-06-24T05:16:18.020Z,15.50
2018-06-24T05:18:47.375Z,15.60
2018-06-24T05:21:16.306Z,15.70
2018-06-24T05:23:45.239Z,15.80
2018-06-24T05:26:14.169Z,15.50
2018-06-24T05:28:43.082Z,15.20
2018-06-24T05:31:12.037Z,15.10
2018-06-24T05:33:40.942Z,15.10
2018-06-24T05:36:09.918Z,15.10
2018-06-24T05:38:38.822Z,15.20
2018-06-24T05:41:08.347Z,15.30
2018-06-24T05:43:37.276Z,15.30
2018-06-24T05:46:06.251Z,15.50
2018-06-24T05:48:35.156Z,15.70
2018-06-24T05:51:04.136Z,15.80
2018-06-24T05:53:33.456Z,16.00
2018-06-24T05:56:02.366Z,16.20
2018-06-24T05:58:31.319Z,16.50
2018-06-24T06:01:00.271Z,16.60
2018-06-24T06:03:29.285Z,16.70
2018-06-24T06:05:58.236Z,16.90
2018-06-24T06:08:27.240Z,17.20
2018-06-24T06:10:56.208Z,17.70
2018-06-24T06:13:25.140Z,18.20
2018-06-24T06:15:54.084Z,18.00
2018-06-24T06:18:23.085Z,17.70
2018-06-24T06:20:52.110Z,17.40
2018-06-24T06:23:21.034Z,16.80
2018-06-24T06:25:49.977Z,16.30
2018-06-24T06:28:18.900Z,16.20
2018-06-24T06:30:47.863Z,16.50
2018-06-24T06:33:16.807Z,17.30
2018-06-24T06:35:45.790Z,18.40
2018-06-24T06:38:14.719Z,18.80
2018-06-24T06:40:43.680Z,18.70
2018-06-24T06:43:12.612Z,18.40
2018-06-24T06:45:41.736Z,17.90
2018-06-24T06:48:11.053Z,17.60
2018-06-24T06:50:40.144Z,17.30
2018-06-24T06:53:09.055Z,17.30
2018-06-24T06:55:37.981Z,17.30
2018-06-24T06:58:06.971Z,17.30
2018-06-24T07:00:35.872Z,17.50
2018-06-24T07:03:05.030Z,17.80
2018-06-24T07:05:33.996Z,18.40
2018-06-24T07:08:03.000Z,18.60
2018-06-24T07:10:31.989Z,18.30
2018-06-24T07:13:00.977Z,17.90
2018-06-24T07:15:29.916Z,17.60
2018-06-24T07:17:58.862Z,17.50
2018-06-24T07:20:27.785Z,17.90
2018-06-24T07:22:56.751Z,18.00
2018-06-24T07:25:25.691Z,17.70
2018-06-24T07:27:54.607Z,17.70
2018-06-24T07:30:23.568Z,17.90
2018-06-24T07:32:52.478Z,18.20
2018-06-24T07:35:21.435Z,18.40
2018-06-24T07:37:50.380Z,19.10
2018-06-24T07:40:19.352Z,19.50
2018-06-24T07:42:48.359Z,19.60
2018-06-24T07:47:45.963Z,19.10
2018-06-24T07:50:14.956Z,18.80
2018-06-24T07:52:43.858Z,18.50
2018-06-24T07:55:12.811Z,18.30
2018-06-24T07:57:41.766Z,18.70
2018-06-24T08:00:10.691Z,19.20
2018-06-24T08:02:39.690Z,19.40
2018-06-24T08:05:08.694Z,18.90
2018-06-24T08:07:37.678Z,18.60
2018-06-24T08:10:06.634Z,18.40
2018-06-24T08:12:35.601Z,18.50
2018-06-24T08:15:04.668Z,18.80
2018-06-24T08:17:33.692Z,19.00
2018-06-24T08:20:02.617Z,19.00
2018-06-24T08:22:31.705Z,19.40
2018-06-24T08:25:00.666Z,20.00
2018-06-24T08:27:29.695Z,20.20
2018-06-24T08:29:58.668Z,20.00
2018-06-24T08:32:27.601Z,19.50
2018-06-24T08:34:56.566Z,18.90
2018-06-24T08:37:25.496Z,18.60
2018-06-24T08:39:54.968Z,18.70
2018-06-24T08:42:23.907Z,19.20
2018-06-24T08:44:52.842Z,19.30
2018-06-24T08:47:21.842Z,19.50
2018-06-24T08:49:50.847Z,19.40
2018-06-24T08:52:19.823Z,19.20
2018-06-24T08:54:48.812Z,19.20
2018-06-24T08:57:17.745Z,19.40
2018-06-24T08:59:46.735Z,20.00
2018-06-24T09:02:15.958Z,20.50
2018-06-24T09:04:45.040Z,20.90
2018-06-24T09:07:14.021Z,21.10
2018-06-24T09:09:42.928Z,21.00
2018-06-24T09:12:11.968Z,20.70
2018-06-24T09:14:40.974Z,19.70
2018-06-24T09:17:09.944Z,19.20
2018-06-24T09:19:39.039Z,18.80
2018-06-24T09:22:08.154Z,18.70
2018-06-24T09:24:37.165Z,18.70
2018-06-24T09:27:06.159Z,18.60
2018-06-24T09:29:36.178Z,18.70
2018-06-24T09:32:05.108Z,18.90
2018-06-24T09:34:34.139Z,18.90
2018-06-24T09:37:03.063Z,18.80
2018-06-24T09:39:32.092Z,17.80
2018-06-24T09:42:01.144Z,17.10
2018-06-24T09:44:32.475Z,17.00
2018-06-24T09:47:02.738Z,17.20
2018-06-24T09:49:31.952Z,17.40
2018-06-24T09:52:00.927Z,17.80
2018-06-24T09:54:29.900Z,18.40
2018-06-24T09:56:58.864Z,18.80
2018-06-24T09:59:27.824Z,19.40
2018-06-24T10:01:56.816Z,19.60
2018-06-24T10:04:25.746Z,19.90
2018-06-24T10:06:55.717Z,20.30
2018-06-24T10:09:24.746Z,20.60
2018-06-24T10:11:54.983Z,20.60
2018-06-24T10:14:23.925Z,20.60
2018-06-24T10:16:52.912Z,20.80
2018-06-24T10:19:21.859Z,21.20
2018-06-24T10:21:50.784Z,21.30
2018-06-24T10:24:19.703Z,21.40
2018-06-24T10:26:48.657Z,21.60
2018-06-24T10:29:18.028Z,21.70
2018-06-24T10:31:47.683Z,21.80
2018-06-24T10:34:16.609Z,21.60
2018-06-24T10:36:45.587Z,21.70
2018-06-24T10:39:14.563Z,21.90
2018-06-24T10:41:43.465Z,22.40
2018-06-24T10:44:12.403Z,22.60
2018-06-24T10:46:41.865Z,22.50
2018-06-24T10:49:10.828Z,21.90
2018-06-24T10:51:40.317Z,21.00
2018-06-24T10:54:09.262Z,20.60
2018-06-24T10:56:38.190Z,20.40
2018-06-24T10:59:07.800Z,20.00
2018-06-24T11:01:36.721Z,20.40
2018-06-24T11:04:05.776Z,20.70
2018-06-24T11:06:34.748Z,20.90
2018-06-24T11:09:03.882Z,21.10
2018-06-24T11:11:32.930Z,21.20
2018-06-24T11:14:01.905Z,21.40
2018-06-24T11:16:30.924Z,21.60
2018-06-24T11:18:59.844Z,21.50
2018-06-24T11:21:29.132Z,21.40
2018-06-24T11:23:58.105Z,21.60
2018-06-24T11:26:27.140Z,21.80
2018-06-24T11:28:56.202Z,21.50
2018-06-24T11:31:25.755Z,21.40
2018-06-24T11:33:54.703Z,21.70
2018-06-24T11:36:23.708Z,21.70
2018-06-24T11:38:52.686Z,21.50
2018-06-24T11:41:21.591Z,21.10
2018-06-24T11:43:50.578Z,20.90
2018-06-24T11:46:19.527Z,21.20
2018-06-24T11:48:48.596Z,21.70
2018-06-24T11:51:17.509Z,21.60
2018-06-24T11:53:47.275Z,21.50
2018-06-24T11:56:16.268Z,21.50
2018-06-24T12:01:13.811Z,21.00
2018-06-24T12:03:42.735Z,20.60
2018-06-24T12:08:40.271Z,20.40
2018-06-24T12:11:09.195Z,20.70
2018-06-24T12:13:38.433Z,21.00
2018-06-24T12:16:07.394Z,21.30
2018-06-24T12:18:36.341Z,21.90
2018-06-24T12:21:05.291Z,22.20
2018-06-24T12:23:34.268Z,22.30
2018-06-24T12:26:03.257Z,22.30
2018-06-24T12:28:32.223Z,22.20
2018-06-24T12:31:01.252Z,22.40
2018-06-24T12:33:30.203Z,22.30
2018-06-24T12:35:59.257Z,22.10
2018-06-24T12:38:28.178Z,21.90
2018-06-24T12:40:57.329Z,21.60
2018-06-24T12:43:26.878Z,21.30
2018-06-24T12:45:55.808Z,21.00
2018-06-24T12:48:24.779Z,20.70
2018-06-24T12:50:53.716Z,20.20
2018-06-24T12:53:22.651Z,20.10
2018-06-24T12:55:51.588Z,19.90
2018-06-24T12:58:21.148Z,19.80
2018-06-24T13:00:50.667Z,19.80
2018-06-24T13:03:19.144Z,20.10
2018-06-24T13:05:48.130Z,20.50
2018-06-24T13:08:17.791Z,20.70
2018-06-24T13:10:46.752Z,20.90
2018-06-24T13:13:15.797Z,21.00
2018-06-24T13:15:44.767Z,21.10
2018-06-24T13:18:13.704Z,21.20
2018-06-24T13:20:42.688Z,21.10
2018-06-24T13:23:12.224Z,20.70
2018-06-24T13:25:41.196Z,20.70
2018-06-24T13:28:10.217Z,20.90
2018-06-24T13:30:39.196Z,20.90
2018-06-24T13:33:07.689Z,21.00
2018-06-24T13:35:37.101Z,20.90
2018-06-24T13:40:34.665Z,20.60
2018-06-24T13:43:03.640Z,20.90
2018-06-24T13:45:32.562Z,20.60
2018-06-24T13:48:01.526Z,20.40
2018-06-24T13:50:30.550Z,20.30
2018-06-24T13:52:59.524Z,20.30
2018-06-24T13:55:28.506Z,20.40
2018-06-24T13:57:57.505Z,20.60
2018-06-24T14:00:26.447Z,20.90
2018-06-24T14:02:55.457Z,21.20
2018-06-24T14:05:24.429Z,21.50
2018-06-24T14:07:53.922Z,21.90
2018-06-24T14:10:22.876Z,21.90
2018-06-24T14:12:51.886Z,21.80
2018-06-24T14:15:20.859Z,21.70
2018-06-24T14:17:49.832Z,21.60
2018-06-24T14:20:18.878Z,21.30
2018-06-24T14:22:47.832Z,20.90
2018-06-24T14:25:16.843Z,20.70
2018-06-24T14:27:45.869Z,20.50
2018-06-24T14:30:15.379Z,20.40
2018-06-24T14:32:44.295Z,20.20
2018-06-24T14:35:13.301Z,20.40
2018-06-24T14:37:42.256Z,20.50
2018-06-24T14:40:11.261Z,20.60
2018-06-24T14:42:40.243Z,20.80
2018-06-24T14:45:09.809Z,20.90
2018-06-24T14:47:38.741Z,20.70
2018-06-24T14:50:07.803Z,20.50
2018-06-24T14:52:36.805Z,20.40
2018-06-24T14:55:05.828Z,20.30
2018-06-24T14:57:34.823Z,20.10
2018-06-24T15:00:03.861Z,20.00
2018-06-24T15:02:35.358Z,20.10
2018-06-24T15:05:05.876Z,20.10
2018-06-24T15:07:35.415Z,20.40
2018-06-24T15:10:04.734Z,20.30
2018-06-24T15:12:33.716Z,20.30
2018-06-24T15:15:02.700Z,20.10
2018-06-24T15:17:31.795Z,19.90
2018-06-24T15:20:00.711Z,19.70
2018-06-24T15:22:29.643Z,19.70
2018-06-24T15:24:58.603Z,19.60
2018-06-24T15:27:28.688Z,19.40
2018-06-24T15:29:57.723Z,19.50
2018-06-24T15:32:26.752Z,19.40
2018-06-24T15:34:55.752Z,19.20
2018-06-24T15:37:24.795Z,18.80
2018-06-24T15:39:53.935Z,18.50
2018-06-24T15:42:22.914Z,18.30
2018-06-24T15:44:51.912Z,18.40
2018-06-24T15:47:20.943Z,18.50
2018-06-24T15:49:50.151Z,18.70
2018-06-24T15:52:19.259Z,19.10
2018-06-24T15:54:48.414Z,19.50
2018-06-24T15:57:17.627Z,19.70
2018-06-24T15:59:47.120Z,19.80
2018-06-24T16:02:16.259Z,19.70
2018-06-24T16:04:45.205Z,19.40
2018-06-24T16:07:14.740Z,19.10
2018-06-24T16:09:43.767Z,18.80
2018-06-24T16:12:12.906Z,18.80
2018-06-24T16:14:42.030Z,18.70
2018-06-24T16:17:11.210Z,18.80
2018-06-24T16:19:40.199Z,18.80
2018-06-24T16:22:09.127Z,18.60
2018-06-24T16:24:38.580Z,18.80
2018-06-24T16:27:07.848Z,18.70
2018-06-24T16:29:36.830Z,18.40
2018-06-24T16:32:07.803Z,18.10
2018-06-24T16:34:36.782Z,18.10
2018-06-24T16:37:05.840Z,17.90
2018-06-24T16:39:35.974Z,17.90
2018-06-24T16:42:04.995Z,17.80
2018-06-24T16:44:34.202Z,17.70
2018-06-24T16:47:03.149Z,17.70
2018-06-24T16:49:32.204Z,17.70
2018-06-24T16:52:01.229Z,17.70
2018-06-24T16:54:30.339Z,17.70
2018-06-24T16:56:59.317Z,17.60
2018-06-24T16:59:28.249Z,17.50
2018-06-24T17:01:57.578Z,17.40
2018-06-24T17:04:26.614Z,17.40
2018-06-24T17:06:55.728Z,17.30
2018-06-24T17:09:25.230Z,17.20
2018-06-24T17:11:54.236Z,17.20
2018-06-24T17:14:23.225Z,17.20
2018-06-24T17:16:52.204Z,17.20
2018-06-24T17:19:21.660Z,17.20
2018-06-24T17:21:51.335Z,17.10
2018-06-24T17:24:20.617Z,17.00
2018-06-24T17:26:49.670Z,16.90
2018-06-24T17:29:18.715Z,16.80
2018-06-24T17:31:49.244Z,16.70
2018-06-24T17:34:18.790Z,16.50
2018-06-24T17:36:47.736Z,16.50
2018-06-24T17:39:16.756Z,16.50
2018-06-24T17:41:46.833Z,16.60
2018-06-24T17:44:16.662Z,16.50
2018-06-24T17:46:45.602Z,16.50
2018-06-24T17:49:14.844Z,16.30
2018-06-24T17:51:43.798Z,16.30
2018-06-24T17:54:12.981Z,16.30
2018-06-24T17:56:42.382Z,16.30
2018-06-24T17:59:12.086Z,16.30
2018-06-24T18:01:41.204Z,16.30
2018-06-24T18:04:10.231Z,16.30
2018-06-24T18:06:40.664Z,16.20
2018-06-24T18:09:11.309Z,16.20
2018-06-24T18:11:40.457Z,16.30
2018-06-24T18:14:09.838Z,16.30
2018-06-24T18:16:39.068Z,16.30
2018-06-24T18:19:08.048Z,16.30
2018-06-24T18:21:37.221Z,16.10
2018-06-24T18:24:06.230Z,16.00
2018-06-24T18:26:35.315Z,15.90
2018-06-24T18:29:04.332Z,15.70
2018-06-24T18:34:01.829Z,15.20
2018-06-24T18:36:31.204Z,15.10
2018-06-24T18:39:00.810Z,15.00
2018-06-24T18:41:30.183Z,14.80
2018-06-24T18:43:59.325Z,14.60
2018-06-24T18:46:28.399Z,14.50
2018-06-24T18:48:57.420Z,14.50
2018-06-24T18:51:26.464Z,14.50
2018-06-24T18:53:55.603Z,14.60
2018-06-24T18:56:24.759Z,14.50
2018-06-24T18:58:53.756Z,14.40
2018-06-24T19:01:22.661Z,14.40
2018-06-24T19:03:51.639Z,14.50
2018-06-24T19:06:20.955Z,14.40
2018-06-24T19:08:49.981Z,14.40
2018-06-24T19:11:19.342Z,14.40
2018-06-24T19:13:48.412Z,14.40
2018-06-24T19:16:25.592Z,14.30
2018-06-24T19:19:06.300Z,14.30
2018-06-24T19:21:47.863Z,14.20
2018-06-24T19:24:33.006Z,14.10
2018-06-24T19:27:23.034Z,14.00
2018-06-24T19:30:05.025Z,14.00
2018-06-24T19:32:57.662Z,13.90
2018-06-24T19:35:41.641Z,13.80
2018-06-24T19:38:10.632Z,13.80
2018-06-24T19:40:39.557Z,13.80
2018-06-24T19:45:37.283Z,13.60
2018-06-24T19:48:07.138Z,13.60
2018-06-24T19:50:36.108Z,13.50
2018-06-24T19:53:05.175Z,13.60
2018-06-24T19:55:36.571Z,13.60
2018-06-24T19:58:05.823Z,13.60
2018-06-24T20:00:36.678Z,13.60
2018-06-24T20:03:05.900Z,13.60
2018-06-24T20:05:34.891Z,13.60
2018-06-24T20:08:04.189Z,13.50
2018-06-24T20:10:33.272Z,13.50
2018-06-24T20:13:02.713Z,13.40
2018-06-24T20:15:31.738Z,13.40
2018-06-24T20:18:01.317Z,13.40
2018-06-24T20:20:30.399Z,13.40
2018-06-24T20:22:59.666Z,13.40
2018-06-24T20:25:28.808Z,13.40
2018-06-24T20:27:57.853Z,13.50
2018-06-24T20:30:26.951Z,13.50
2018-06-24T20:32:55.935Z,13.50
2018-06-24T20:35:24.899Z,13.40
2018-06-24T20:37:53.941Z,13.40
2018-06-24T20:40:22.960Z,13.40
2018-06-24T20:42:52.216Z,13.40
2018-06-24T20:45:21.146Z,13.40
2018-06-24T20:47:50.206Z,13.40
2018-06-24T20:50:19.634Z,13.50
2018-06-24T20:52:48.773Z,13.50
2018-06-24T20:57:46.491Z,13.50
2018-06-24T21:00:15.426Z,13.60
2018-06-24T21:02:44.431Z,13.60
2018-06-24T21:05:13.491Z,13.60
2018-06-24T21:07:42.660Z,13.60
2018-06-24T21:10:11.795Z,13.60
2018-06-24T21:12:41.325Z,13.60
2018-06-24T21:17:38.811Z,13.70
2018-06-24T21:20:07.843Z,13.60
2018-06-24T21:22:36.852Z,13.60
2018-06-24T21:25:06.474Z,13.50
2018-06-24T21:27:35.419Z,13.50
2018-06-24T21:30:04.654Z,13.50
2018-06-24T21:32:33.600Z,13.50
2018-06-24T21:35:02.544Z,13.50
2018-06-24T21:37:32.089Z,13.40
2018-06-24T21:40:01.585Z,13.40
2018-06-24T21:42:31.856Z,13.40
2018-06-24T21:45:01.292Z,13.30
2018-06-24T21:47:30.333Z,13.20
2018-06-24T21:49:59.243Z,13.10
2018-06-24T21:52:28.344Z,13.00
2018-06-24T21:54:57.377Z,13.00
2018-06-24T21:57:26.507Z,12.90
2018-06-24T21:59:59.008Z,13.00
2018-06-24T22:02:28.684Z,13.00
2018-06-24T22:04:58.332Z,12.90
2018-06-24T22:07:27.310Z,12.80
2018-06-24T22:09:56.500Z,12.70
2018-06-24T22:12:25.545Z,12.70
2018-06-24T22:14:54.577Z,12.70
2018-06-24T22:17:24.229Z,12.60
2018-06-24T22:19:53.353Z,12.50
2018-06-24T22:22:22.367Z,12.40
2018-06-24T22:24:51.334Z,12.40
2018-06-24T22:27:20.333Z,12.40
2018-06-24T22:29:49.268Z,12.20
2018-06-24T22:32:18.243Z,12.10
2018-06-24T22:34:47.622Z,12.10
2018-06-24T22:37:16.631Z,12.00
2018-06-24T22:39:45.592Z,12.00
2018-06-24T22:42:14.554Z,11.90
2018-06-24T22:44:43.527Z,11.80
2018-06-24T22:47:12.525Z,11.70
2018-06-24T22:49:41.475Z,11.70
2018-06-24T22:54:38.940Z,11.60
2018-06-24T22:57:07.892Z,11.60
2018-06-24T23:00:15.237Z,11.60
2018-06-24T23:02:44.750Z,11.50
2018-06-24T23:05:14.200Z,11.40
2018-06-24T23:07:44.236Z,11.40
2018-06-24T23:10:13.742Z,11.40
2018-06-24T23:12:42.975Z,11.40
2018-06-24T23:15:12.520Z,11.40
2018-06-24T23:17:41.501Z,11.40
2018-06-24T23:20:10.525Z,11.50
2018-06-24T23:22:39.464Z,11.50
2018-06-24T23:25:08.439Z,11.70
2018-06-24T23:27:37.388Z,11.70
2018-06-24T23:30:06.812Z,11.80
2018-06-24T23:32:35.719Z,12.00
2018-06-24T23:35:05.265Z,12.00
2018-06-24T23:37:34.183Z,12.10
2018-06-24T23:40:03.163Z,12.10
2018-06-24T23:45:00.722Z,12.10
2018-06-24T23:47:29.701Z,12.20
2018-06-24T23:49:59.172Z,12.30
2018-06-24T23:52:28.159Z,12.30
2018-06-24T23:54:57.104Z,12.30
2018-06-24T23:57:26.061Z,12.20
2018-06-24T23:59:55.007Z,12.30
